Time;durP1;ratioP1;P1;durP2;ratioP2;P2;SDS_P1;SDS_P2;PMS_P1;PMS_P2;Temp;Humidity;BMP_temperature;BMP_pressure;BME280_temperature;BME280_humidity;BME280_pressure;Samples;Min_cycle;Max_cycle;Signal;HPM_P1;HPM_P2
2022/04/27 00:01:21;;;;;;;6.90;5.70;;;;;;;;;;5049484;28;20469;-80
2022/04/27 00:03:48;;;;;;;6.78;6.10;;;;;;;;;;5050849;28;20056;-79
2022/04/27 00:06:15;;;;;;;6.55;5.78;;;;;;;;;;5049993;28;20037;-79
2022/04/27 00:08:41;;;;;;;6.50;5.87;;;;;;;;;;5051558;28;20049;-80
2022/04/27 00:11:08;;;;;;;8.23;6.53;;;;;;;;;;5050219;28;20045;-80
2022/04/27 00:13:34;;;;;;;10.63;6.43;;;;;;;;;;5051216;28;20111;-80
2022/04/27 00:16:00;;;;;;;8.40;6.30;;;;;;;;;;5051507;28;20179;-80
2022/04/27 00:18:27;;;;;;;7.50;6.25;;;;;;;;;;5049898;28;20546;-80
2022/04/27 00:20:53;;;;;;;6.93;6.13;;;;;;;;;;5051378;28;20102;-80
2022/04/27 00:23:21;;;;;;;6.90;6.20;;;;;;;;;;5051123;28;20080;-80
2022/04/27 00:25:47;;;;;;;7.90;6.55;;;;;;;;;;5051099;28;20052;-80
2022/04/27 00:28:13;;;;;;;7.97;7.18;;;;;;;;;;5051088;28;20114;-80
2022/04/27 00:30:40;;;;;;;7.30;6.45;;;;;;;;;;5051777;28;20048;-80
2022/04/27 00:33:07;;;;;;;8.40;6.88;;;;;;;;;;5051266;28;20511;-81
2022/04/27 00:35:33;;;;;;;7.95;6.60;;;;;;;;;;5050914;28;20088;-81
2022/04/27 00:37:59;;;;;;;7.25;6.65;;;;;;;;;;5050877;28;20095;-80
2022/04/27 00:40:26;;;;;;;7.25;6.53;;;;;;;;;;5050968;28;20073;-80
2022/04/27 00:42:52;;;;;;;7.38;6.50;;;;;;;;;;5051212;28;20095;-80
2022/04/27 00:45:19;;;;;;;7.72;6.65;;;;;;;;;;5054369;28;20501;-80
2022/04/27 00:47:45;;;;;;;11.13;7.22;;;;;;;;;;5054927;28;20453;-80
2022/04/27 00:50:11;;;;;;;6.95;6.25;;;;;;;;;;5053286;28;20079;-80
2022/04/27 00:52:38;;;;;;;7.03;5.95;;;;;;;;;;5054446;28;20057;-80
2022/04/27 00:55:05;;;;;;;7.80;6.30;;;;;;;;;;5054618;28;20053;-80
2022/04/27 00:57:33;;;;;;;6.53;5.57;;;;;;;;;;5054579;28;20076;-80
2022/04/27 00:59:59;;;;;;;;;;;;;;;;;;5055071;28;20141;-80
2022/04/27 01:02:25;;;;;;;6.88;6.10;;;;;;;;;;5054307;28;20368;-80
2022/04/27 01:04:52;;;;;;;6.88;5.90;;;;;;;;;;5053451;28;20053;-80
2022/04/27 01:07:18;;;;;;;7.53;6.15;;;;;;;;;;5053261;28;20092;-80
2022/04/27 01:09:45;;;;;;;8.27;6.10;;;;;;;;;;5054510;28;20084;-80
2022/04/27 01:12:11;;;;;;;7.22;6.03;;;;;;;;;;5054053;28;20544;-80
2022/04/27 01:14:45;;;;;;;8.18;6.55;;;;;;;;;;5054461;28;20128;-80
2022/04/27 01:17:11;;;;;;;8.23;6.68;;;;;;;;;;5054084;28;20096;-79
2022/04/27 01:19:38;;;;;;;8.63;7.25;;;;;;;;;;5052644;28;20080;-79
2022/04/27 01:22:04;;;;;;;9.80;7.68;;;;;;;;;;5054309;28;20076;-80
2022/04/27 01:24:31;;;;;;;9.32;7.68;;;;;;;;;;5054107;28;20091;-80
2022/04/27 01:26:58;;;;;;;8.83;7.93;;;;;;;;;;5054171;28;20090;-80
2022/04/27 01:29:25;;;;;;;12.07;8.65;;;;;;;;;;5053812;28;20084;-79
2022/04/27 01:31:52;;;;;;;10.52;7.95;;;;;;;;;;5054451;28;20057;-79
2022/04/27 01:40:25;;;;;;;11.02;8.68;;;;;;;;;;5053602;28;20493;-80
2022/04/27 01:42:52;;;;;;;10.18;8.23;;;;;;;;;;5053631;28;20077;-80
2022/04/27 01:45:18;;;;;;;10.90;8.00;;;;;;;;;;5035984;28;20144;-80
2022/04/27 01:47:44;;;;;;;9.57;8.60;;;;;;;;;;5053743;28;20080;-80
2022/04/27 01:50:11;;;;;;;8.77;7.88;;;;;;;;;;5053804;28;20540;-80
2022/04/27 01:55:22;;;;;;;11.65;8.98;;;;;;;;;;5053282;28;20091;-80
2022/04/27 01:57:49;;;;;;;9.63;8.13;;;;;;;;;;5053258;28;20045;-80
2022/04/27 02:00:15;;;;;;;10.00;8.98;;;;;;;;;;5053611;28;20156;-80
2022/04/27 02:02:41;;;;;;;11.85;9.05;;;;;;;;;;5053279;28;20053;-80
2022/04/27 02:05:08;;;;;;;11.38;10.18;;;;;;;;;;5053558;28;20045;-80
2022/04/27 02:07:34;;;;;;;11.00;9.48;;;;;;;;;;5053220;28;20079;-80
2022/04/27 02:10:01;;;;;;;11.70;9.80;;;;;;;;;;5053408;28;20088;-80
2022/04/27 02:12:27;;;;;;;12.13;10.43;;;;;;;;;;5052973;28;20095;-80
2022/04/27 02:14:54;;;;;;;12.50;10.90;;;;;;;;;;5052097;28;20077;-80
2022/04/27 02:17:20;;;;;;;11.25;10.00;;;;;;;;;;5053095;28;20087;-80
2022/04/27 02:19:47;;;;;;;13.20;11.43;;;;;;;;;;5053101;28;20083;-80
2022/04/27 02:22:13;;;;;;;12.23;10.95;;;;;;;;;;5051933;28;20076;-80
2022/04/27 02:24:39;;;;;;;14.20;12.18;;;;;;;;;;5053208;28;20091;-80
2022/04/27 02:27:06;;;;;;;13.40;11.40;;;;;;;;;;5053267;28;20076;-80
2022/04/27 02:29:32;;;;;;;11.75;10.63;;;;;;;;;;5053309;28;20396;-80
2022/04/27 02:31:59;;;;;;;13.70;11.00;;;;;;;;;;5051636;28;20133;-80
2022/04/27 02:34:25;;;;;;;16.35;13.32;;;;;;;;;;5052337;28;20136;-80
2022/04/27 02:36:52;;;;;;;17.63;15.45;;;;;;;;;;5051608;28;20119;-80
2022/04/27 02:39:18;;;;;;;17.73;15.60;;;;;;;;;;5052528;28;20080;-80
2022/04/27 02:41:44;;;;;;;17.88;13.77;;;;;;;;;;5051163;28;20592;-80
2022/04/27 02:44:11;;;;;;;17.02;12.77;;;;;;;;;;5052744;28;20120;-81
2022/04/27 02:46:37;;;;;;;14.25;12.10;;;;;;;;;;5052595;28;20453;-81
2022/04/27 02:51:49;;;;;;;13.50;12.02;;;;;;;;;;5052572;28;20481;-81
2022/04/27 02:54:16;;;;;;;15.15;11.55;;;;;;;;;;5052552;28;20052;-81
2022/04/27 02:56:42;;;;;;;11.25;9.57;;;;;;;;;;5052204;28;20561;-80
2022/04/27 02:59:09;;;;;;;11.13;9.10;;;;;;;;;;5052001;28;20531;-80
2022/04/27 03:01:35;;;;;;;9.90;8.88;;;;;;;;;;5052308;28;20077;-80
2022/04/27 03:04:02;;;;;;;10.88;8.98;;;;;;;;;;5050661;28;20101;-80
2022/04/27 03:06:28;;;;;;;11.10;10.00;;;;;;;;;;5051170;28;20096;-80
2022/04/27 03:08:55;;;;;;;11.93;9.25;;;;;;;;;;5051991;28;20084;-80
2022/04/27 03:11:21;;;;;;;11.15;9.73;;;;;;;;;;5052172;28;20045;-80
2022/04/27 03:13:48;;;;;;;12.57;9.80;;;;;;;;;;5051941;28;20535;-80
2022/04/27 03:16:14;;;;;;;13.25;9.63;;;;;;;;;;5052141;28;20087;-80
2022/04/27 03:18:42;;;;;;;11.75;9.30;;;;;;;;;;5052055;28;20055;-80
2022/04/27 03:21:09;;;;;;;11.43;9.93;;;;;;;;;;5050449;28;20080;-81
2022/04/27 03:23:35;;;;;;;12.82;10.95;;;;;;;;;;5050727;28;20076;-81
2022/04/27 03:26:02;;;;;;;11.50;10.00;;;;;;;;;;5052049;28;20127;-81
2022/04/27 03:28:28;;;;;;;13.65;11.38;;;;;;;;;;5051964;28;20111;-81
2022/04/27 03:30:55;;;;;;;13.77;10.68;;;;;;;;;;5051813;28;20499;-81
2022/04/27 03:33:21;;;;;;;13.35;11.27;;;;;;;;;;5051586;28;20053;-80
2022/04/27 03:35:48;;;;;;;13.55;11.20;;;;;;;;;;5051383;28;20057;-80
2022/04/27 03:38:15;;;;;;;14.57;11.90;;;;;;;;;;5051753;28;20182;-80
2022/04/27 03:40:42;;;;;;;13.77;11.20;;;;;;;;;;5051825;28;20049;-79
2022/04/27 03:43:09;;;;;;;15.07;12.10;;;;;;;;;;5051865;28;20083;-79
2022/04/27 03:45:35;;;;;;;15.68;11.80;;;;;;;;;;5051550;28;20069;-79
2022/04/27 03:48:01;;;;;;;15.85;11.90;;;;;;;;;;5051582;28;20136;-79
2022/04/27 03:50:28;;;;;;;17.52;13.90;;;;;;;;;;5051623;28;20056;-79
2022/04/27 03:52:54;;;;;;;18.15;13.90;;;;;;;;;;5051414;28;20077;-79
2022/04/27 03:55:21;;;;;;;16.33;14.02;;;;;;;;;;5051752;28;20076;-80
2022/04/27 03:57:47;;;;;;;16.02;13.40;;;;;;;;;;5051333;28;20076;-79
2022/04/27 04:00:13;;;;;;;16.48;12.98;;;;;;;;;;5051565;28;20096;-80
2022/04/27 04:02:40;;;;;;;17.00;13.27;;;;;;;;;;5051521;28;20087;-80
2022/04/27 04:05:07;;;;;;;18.20;12.77;;;;;;;;;;5051294;28;20056;-80
2022/04/27 04:07:33;;;;;;;14.95;12.50;;;;;;;;;;5051472;28;20042;-81
2022/04/27 04:10:00;;;;;;;15.85;13.80;;;;;;;;;;5050318;28;20080;-80
2022/04/27 04:12:26;;;;;;;15.98;14.02;;;;;;;;;;5051171;28;20081;-80
2022/04/27 04:14:53;;;;;;;14.07;12.43;;;;;;;;;;5051337;28;20049;-80
2022/04/27 04:17:20;;;;;;;18.85;13.68;;;;;;;;;;5051887;28;20085;-80
2022/04/27 04:19:46;;;;;;;16.77;13.65;;;;;;;;;;5054021;28;20091;-80
2022/04/27 04:22:13;;;;;;;15.02;13.43;;;;;;;;;;5055167;28;20562;-80
2022/04/27 04:28:29;;;;;;;15.07;13.48;;;;;;;;;;5055246;28;20049;-80
2022/04/27 04:30:12;;;;;;;16.13;13.35;;;;;;;;;;5055037;28;20131;-80
2022/04/27 04:32:39;;;;;;;16.42;13.32;;;;;;;;;;5054935;28;20091;-79
2022/04/27 04:35:05;;;;;;;14.27;11.70;;;;;;;;;;5054777;28;20080;-79
2022/04/27 04:37:32;;;;;;;15.75;13.10;;;;;;;;;;5053964;28;20064;-79
2022/04/27 04:39:58;;;;;;;15.20;12.98;;;;;;;;;;5054997;28;20081;-79
2022/04/27 04:42:27;;;;;;;15.93;12.57;;;;;;;;;;5054744;28;20049;-79
2022/04/27 04:44:53;;;;;;;16.83;13.52;;;;;;;;;;5054942;28;20107;-79
2022/04/27 04:47:20;;;;;;;15.00;12.45;;;;;;;;;;5054914;28;20416;-79
2022/04/27 04:49:46;;;;;;;14.95;12.63;;;;;;;;;;5054926;28;20102;-79
2022/04/27 04:52:12;;;;;;;20.38;13.50;;;;;;;;;;5054507;28;20088;-79
2022/04/27 04:54:39;;;;;;;16.55;13.35;;;;;;;;;;5054522;28;20095;-80
2022/04/27 04:57:05;;;;;;;16.60;12.73;;;;;;;;;;5055034;28;20076;-80
2022/04/27 04:59:35;;;;;;;14.32;12.80;;;;;;;;;;5054360;28;20398;-79
2022/04/27 05:02:01;;;;;;;16.20;12.57;;;;;;;;;;5054362;28;20080;-80
2022/04/27 05:04:28;;;;;;;16.65;13.07;;;;;;;;;;5054649;28;20053;-80
2022/04/27 05:06:54;;;;;;;15.20;13.13;;;;;;;;;;5054607;28;20080;-80
2022/04/27 05:09:21;;;;;;;19.63;13.02;;;;;;;;;;5054238;28;20466;-79
2022/04/27 05:11:47;;;;;;;16.08;13.20;;;;;;;;;;5054438;28;20083;-80
2022/04/27 05:14:14;;;;;;;14.38;12.60;;;;;;;;;;5054474;28;20048;-80
2022/04/27 05:16:40;;;;;;;15.40;12.82;;;;;;;;;;5054296;28;20103;-80
2022/04/27 05:19:07;;;;;;;16.40;12.63;;;;;;;;;;5054204;28;20457;-80
2022/04/27 05:21:33;;;;;;;16.55;13.85;;;;;;;;;;5054040;28;20103;-80
2022/04/27 05:24:00;;;;;;;16.08;14.00;;;;;;;;;;5054432;28;20053;-80
2022/04/27 05:26:27;;;;;;;18.85;14.27;;;;;;;;;;5053977;28;20053;-80
2022/04/27 05:34:30;;;;;;;17.92;14.43;;;;;;;;;;5053618;28;20059;-80
2022/04/27 05:36:57;;;;;;;16.60;13.35;;;;;;;;;;5053755;28;20476;-80
2022/04/27 05:39:23;;;;;;;16.23;13.38;;;;;;;;;;5053678;28;20140;-80
2022/04/27 05:41:50;;;;;;;16.25;13.13;;;;;;;;;;5053771;28;20104;-80
2022/04/27 05:44:17;;;;;;;15.55;13.95;;;;;;;;;;5053685;28;20501;-80
2022/04/27 05:46:44;;;;;;;16.85;13.38;;;;;;;;;;5052340;28;20083;-80
2022/04/27 05:49:13;;;;;;;18.48;14.48;;;;;;;;;;5053519;28;20472;-80
2022/04/27 05:51:40;;;;;;;16.20;13.80;;;;;;;;;;5053699;28;20468;-79
2022/04/27 05:54:06;;;;;;;17.35;13.80;;;;;;;;;;5053407;28;20570;-79
2022/04/27 05:56:33;;;;;;;19.10;13.90;;;;;;;;;;5052310;28;20080;-80
2022/04/27 05:59:01;;;;;;;17.23;14.80;;;;;;;;;;5053105;28;20099;-80
2022/04/27 06:01:28;;;;;;;16.75;13.48;;;;;;;;;;5053567;28;20081;-80
2022/04/27 06:03:55;;;;;;;14.95;13.25;;;;;;;;;;5053536;28;20049;-80
2022/04/27 06:06:23;;;;;;;17.38;14.13;;;;;;;;;;5053559;28;20053;-80
2022/04/27 06:08:50;;;;;;;14.63;12.85;;;;;;;;;;5053402;28;20076;-81
2022/04/27 06:11:17;;;;;;;17.42;14.32;;;;;;;;;;5053080;28;20063;-81
2022/04/27 06:13:43;;;;;;;16.27;13.90;;;;;;;;;;5053398;28;20072;-81
2022/04/27 06:16:10;;;;;;;17.52;13.20;;;;;;;;;;5053132;28;20130;-80
2022/04/27 06:18:39;;;;;;;16.67;14.85;;;;;;;;;;5053264;28;20091;-80
2022/04/27 06:21:05;;;;;;;17.20;15.00;;;;;;;;;;5051894;28;20127;-80
2022/04/27 06:23:33;;;;;;;16.60;14.07;;;;;;;;;;5053184;28;20099;-81
2022/04/27 06:25:59;;;;;;;17.58;14.48;;;;;;;;;;5053208;28;20049;-80
2022/04/27 06:28:29;;;;;;;16.65;14.68;;;;;;;;;;5052688;28;20053;-80
2022/04/27 06:30:55;;;;;;;19.33;15.35;;;;;;;;;;5053055;28;20072;-80
2022/04/27 06:33:22;;;;;;;19.45;16.38;;;;;;;;;;5052866;28;20136;-80
2022/04/27 06:35:50;;;;;;;23.98;16.38;;;;;;;;;;5052469;28;20103;-80
2022/04/27 06:38:16;;;;;;;18.55;15.82;;;;;;;;;;5052526;28;20139;-80
2022/04/27 06:41:03;;;;;;;18.38;15.90;;;;;;;;;;5052125;28;20514;-80
2022/04/27 06:43:29;;;;;;;19.48;16.52;;;;;;;;;;5051872;28;20076;-79
2022/04/27 06:45:56;;;;;;;19.00;15.68;;;;;;;;;;5051298;28;20072;-81
2022/04/27 06:48:23;;;;;;;18.23;15.17;;;;;;;;;;5051906;28;20076;-80
2022/04/27 06:50:49;;;;;;;18.15;15.80;;;;;;;;;;5052443;28;20095;-80
2022/04/27 06:53:16;;;;;;;16.67;14.90;;;;;;;;;;5051974;28;20382;-80
2022/04/27 06:55:42;;;;;;;18.52;15.77;;;;;;;;;;5052508;28;20135;-80
2022/04/27 06:58:09;;;;;;;18.65;15.40;;;;;;;;;;5052434;28;20480;-80
2022/04/27 07:00:36;;;;;;;19.77;15.07;;;;;;;;;;5051642;28;20131;-78
2022/04/27 07:03:04;;;;;;;23.38;17.02;;;;;;;;;;5051638;28;20048;-80
2022/04/27 07:05:31;;;;;;;22.73;18.20;;;;;;;;;;5051571;28;20052;-80
2022/04/27 07:07:58;;;;;;;23.65;19.17;;;;;;;;;;5050721;28;20076;-79
2022/04/27 07:10:25;;;;;;;26.30;19.35;;;;;;;;;;5051952;28;20049;-77
2022/04/27 07:12:52;;;;;;;21.15;17.15;;;;;;;;;;5051826;28;20084;-80
2022/04/27 07:15:18;;;;;;;20.33;17.33;;;;;;;;;;5051223;28;20076;-79
2022/04/27 07:17:44;;;;;;;24.70;18.30;;;;;;;;;;5051690;28;20045;-78
2022/04/27 07:20:11;;;;;;;23.52;18.80;;;;;;;;;;5051687;28;20555;-80
2022/04/27 07:22:37;;;;;;;23.98;19.10;;;;;;;;;;5052130;28;20081;-80
2022/04/27 07:25:04;;;;;;;21.75;18.63;;;;;;;;;;5051687;28;20084;-79
2022/04/27 07:27:31;;;;;;;27.33;18.90;;;;;;;;;;5051772;28;20559;-81
2022/04/27 07:29:59;;;;;;;22.20;18.27;;;;;;;;;;5050237;28;20057;-81
2022/04/27 07:32:25;;;;;;;27.65;20.17;;;;;;;;;;5050164;28;20572;-79
2022/04/27 07:34:51;;;;;;;25.00;20.08;;;;;;;;;;5051454;28;20097;-79
2022/04/27 07:37:18;;;;;;;25.73;20.83;;;;;;;;;;5051578;28;20057;-80
2022/04/27 07:39:45;;;;;;;32.17;24.10;;;;;;;;;;5051256;28;20493;-80
2022/04/27 07:42:11;;;;;;;26.10;19.73;;;;;;;;;;5051381;28;20087;-79
2022/04/27 07:44:38;;;;;;;25.52;19.23;;;;;;;;;;5051790;28;20106;-79
2022/04/27 07:47:04;;;;;;;23.80;17.60;;;;;;;;;;5051517;28;20049;-79
2022/04/27 07:49:31;;;;;;;19.95;15.85;;;;;;;;;;5051303;28;20099;-83
2022/04/27 07:51:59;;;;;;;20.73;12.73;;;;;;;;;;5050102;28;20080;-81
2022/04/27 07:54:25;;;;;;;10.90;7.70;;;;;;;;;;5049080;28;20106;-84
2022/04/27 07:56:52;;;;;;;13.98;7.95;;;;;;;;;;5048806;28;20501;-82
2022/04/27 07:59:18;;;;;;;6.72;5.07;;;;;;;;;;5050894;28;20080;-85
2022/04/27 08:01:44;;;;;;;5.43;4.75;;;;;;;;;;5051086;28;20041;-82
2022/04/27 08:04:11;;;;;;;4.63;3.95;;;;;;;;;;5050976;28;20093;-83
2022/04/27 08:06:37;;;;;;;8.18;3.20;;;;;;;;;;5049638;28;20501;-83
2022/04/27 08:09:04;;;;;;;4.93;2.90;;;;;;;;;;5047442;28;20076;-78
2022/04/27 08:11:30;;;;;;;4.80;2.80;;;;;;;;;;5047836;28;20171;-82
2022/04/27 08:13:57;;;;;;;4.20;3.00;;;;;;;;;;5050071;28;20053;-81
2022/04/27 08:16:23;;;;;;;4.97;2.80;;;;;;;;;;5051380;28;20049;-78
2022/04/27 08:18:50;;;;;;;3.65;2.90;;;;;;;;;;5051640;28;20060;-81
2022/04/27 08:21:16;;;;;;;4.88;2.70;;;;;;;;;;5047346;28;20083;-81
2022/04/27 08:23:46;;;;;;;4.22;3.13;;;;;;;;;;5050286;28;20068;-80
2022/04/27 08:26:13;;;;;;;3.17;2.75;;;;;;;;;;5050939;28;20072;-83
2022/04/27 08:28:40;;;;;;;3.78;3.13;;;;;;;;;;5050595;28;20084;-82
2022/04/27 08:31:07;;;;;;;4.13;2.73;;;;;;;;;;5051399;28;20087;-82
2022/04/27 08:33:34;;;;;;;7.00;2.70;;;;;;;;;;5051034;28;20282;-80
2022/04/27 08:36:00;;;;;;;4.70;2.77;;;;;;;;;;5051251;28;20099;-79
2022/04/27 08:38:47;;;;;;;4.70;2.43;;;;;;;;;;5050844;28;20056;-78
2022/04/27 08:41:14;;;;;;;3.65;2.30;;;;;;;;;;5048159;28;20049;-84
2022/04/27 08:43:40;;;;;;;4.03;2.22;;;;;;;;;;5050816;28;21051;-82
2022/04/27 08:46:08;;;;;;;6.35;2.50;;;;;;;;;;5050679;28;20041;-76
2022/04/27 08:48:34;;;;;;;4.28;2.53;;;;;;;;;;5050455;28;20505;-77
2022/04/27 08:51:03;;;;;;;4.45;2.13;;;;;;;;;;5050591;28;20107;-84
2022/04/27 08:53:30;;;;;;;4.93;2.05;;;;;;;;;;5050613;28;20071;-84
2022/04/27 08:55:57;;;;;;;3.78;2.13;;;;;;;;;;5050358;28;20138;-84
2022/04/27 08:58:24;;;;;;;4.40;2.05;;;;;;;;;;5049054;28;20123;-80
2022/04/27 09:01:08;;;;;;;3.35;1.75;;;;;;;;;;5050420;28;20045;-82
2022/04/27 09:03:36;;;;;;;3.95;1.85;;;;;;;;;;5049573;28;20095;-79
2022/04/27 09:06:04;;;;;;;2.60;1.77;;;;;;;;;;5053228;28;20095;-78
2022/04/27 09:08:52;;;;;;;3.08;1.75;;;;;;;;;;5053885;28;20084;-78
2022/04/27 09:11:23;;;;;;;5.47;1.65;;;;;;;;;;5053760;28;20076;-78
2022/04/27 09:13:49;;;;;;;2.58;2.05;;;;;;;;;;5052889;28;20088;-83
2022/04/27 09:16:18;;;;;;;3.15;1.85;;;;;;;;;;5054009;28;20092;-81
2022/04/27 09:21:31;;;;;;;4.93;2.08;;;;;;;;;;5054258;28;20106;-82
2022/04/27 09:24:02;;;;;;;2.38;1.80;;;;;;;;;;5054112;28;20099;-79
2022/04/27 09:26:31;;;;;;;2.08;1.50;;;;;;;;;;5053982;28;20045;-79
2022/04/27 09:28:59;;;;;;;2.95;1.60;;;;;;;;;;5054673;28;20080;-78
2022/04/27 09:31:25;;;;;;;;;;;;;;;;;;5054574;28;20084;-75
2022/04/27 09:34:03;;;;;;;4.10;2.40;;;;;;;;;;5053767;28;19925;-80
2022/04/27 09:36:29;;;;;;;6.22;3.28;;;;;;;;;;5054047;28;20084;-80
2022/04/27 09:38:57;;;;;;;3.55;3.15;;;;;;;;;;5053990;28;20057;-79
2022/04/27 09:41:41;;;;;;;7.60;4.72;;;;;;;;;;5052643;28;20057;-73
2022/04/27 09:44:09;;;;;;;5.72;3.55;;;;;;;;;;5053915;28;20386;-69
2022/04/27 09:46:40;;;;;;;4.38;3.78;;;;;;;;;;5053485;28;20091;-83
2022/04/27 09:49:14;;;;;;;6.43;3.67;;;;;;;;;;5052243;28;20132;-81
2022/04/27 09:51:56;;;;;;;7.88;4.03;;;;;;;;;;5052762;28;20143;-72
2022/04/27 09:54:28;;;;;;;6.65;4.05;;;;;;;;;;5053262;28;20087;-78
2022/04/27 09:57:00;;;;;;;3.20;2.92;;;;;;;;;;5054941;28;20119;-82
2022/04/27 09:59:29;;;;;;;4.05;2.85;;;;;;;;;;5046202;28;20107;-83
2022/04/27 10:01:58;;;;;;;4.47;2.30;;;;;;;;;;5053500;28;20068;-82
2022/04/27 10:04:28;;;;;;;3.83;2.60;;;;;;;;;;5053570;28;20045;-78
2022/04/27 10:07:00;;;;;;;4.95;4.10;;;;;;;;;;5053182;28;20040;-77
2022/04/27 10:09:30;;;;;;;5.10;3.35;;;;;;;;;;5053027;28;20168;-81
2022/04/27 10:12:11;;;;;;;6.30;2.88;;;;;;;;;;5051211;28;20428;-81
2022/04/27 10:14:38;;;;;;;2.28;1.50;;;;;;;;;;5052393;28;20079;-81
2022/04/27 10:17:05;;;;;;;2.85;1.90;;;;;;;;;;5052700;28;20061;-81
2022/04/27 10:19:31;;;;;;;3.17;1.52;;;;;;;;;;5051939;28;20136;-81
2022/04/27 10:22:04;;;;;;;2.50;1.80;;;;;;;;;;5052817;28;20504;-80
2022/04/27 10:24:34;;;;;;;7.13;3.00;;;;;;;;;;5053323;28;20277;-80
2022/04/27 10:27:12;;;;;;;5.25;3.15;;;;;;;;;;5052523;28;20083;-82
2022/04/27 10:29:39;;;;;;;6.05;3.80;;;;;;;;;;5051136;28;20087;-77
2022/04/27 10:32:05;;;;;;;6.60;4.35;;;;;;;;;;5052376;28;20436;-81
2022/04/27 10:34:33;;;;;;;4.68;2.92;;;;;;;;;;5052032;28;20080;-81
2022/04/27 10:37:00;;;;;;;2.65;2.20;;;;;;;;;;5050906;28;20049;-81
2022/04/27 10:39:28;;;;;;;2.67;2.05;;;;;;;;;;5052409;28;20052;-81
2022/04/27 10:42:03;;;;;;;3.17;2.90;;;;;;;;;;5052069;28;20076;-84
2022/04/27 10:44:50;;;;;;;4.53;2.90;;;;;;;;;;5052093;28;20048;-86
2022/04/27 10:47:20;;;;;;;4.18;2.90;;;;;;;;;;5050790;28;20501;-85
2022/04/27 10:49:48;;;;;;;3.88;2.70;;;;;;;;;;5052413;28;20475;-81
2022/04/27 10:52:14;;;;;;;;;;;;;;;;;;5051785;28;20123;-81
2022/04/27 10:54:41;;;;;;;4.10;3.10;;;;;;;;;;5050549;28;20335;-87
2022/04/27 10:57:16;;;;;;;8.48;3.80;;;;;;;;;;5051939;28;20083;-81
2022/04/27 10:59:43;;;;;;;4.55;3.35;;;;;;;;;;5052004;28;20049;-81
2022/04/27 11:02:28;;;;;;;5.45;3.50;;;;;;;;;;5049140;28;20076;-80
2022/04/27 11:04:55;;;;;;;5.80;3.78;;;;;;;;;;5049079;28;20041;-72
2022/04/27 11:07:25;;;;;;;7.05;4.25;;;;;;;;;;5052358;28;20076;-75
2022/04/27 11:10:04;;;;;;;6.07;3.97;;;;;;;;;;5051779;28;20084;-80
2022/04/27 11:12:31;;;;;;;5.47;2.92;;;;;;;;;;5050790;28;20163;-77
2022/04/27 11:14:58;;;;;;;4.63;2.75;;;;;;;;;;5052283;28;20087;-80
2022/04/27 11:17:34;;;;;;;6.17;4.80;;;;;;;;;;5052235;28;20049;-75
2022/04/27 11:20:03;;;;;;;3.55;2.47;;;;;;;;;;5050689;28;20053;-80
2022/04/27 11:22:38;;;;;;;3.10;2.33;;;;;;;;;;5051977;28;20102;-76
2022/04/27 11:25:07;;;;;;;4.93;3.65;;;;;;;;;;5051787;28;20041;-79
2022/04/27 11:27:35;;;;;;;6.03;3.03;;;;;;;;;;5051778;28;20044;-79
2022/04/27 11:30:03;;;;;;;4.13;2.30;;;;;;;;;;5052023;28;20277;-77
2022/04/27 11:32:29;;;;;;;;;;;;;;;;;;5052428;28;20045;-82
2022/04/27 11:34:55;;;;;;;2.78;2.17;;;;;;;;;;5050548;28;19971;-83
2022/04/27 11:37:22;;;;;;;2.47;2.28;;;;;;;;;;5050837;28;20130;-81
2022/04/27 11:39:49;;;;;;;3.05;2.00;;;;;;;;;;5066860;28;20057;-83
2022/04/27 11:42:16;;;;;;;4.45;2.45;;;;;;;;;;5050608;28;20041;-83
2022/04/27 11:44:49;;;;;;;3.38;2.40;;;;;;;;;;5051387;28;20041;-80
2022/04/27 11:47:29;;;;;;;6.43;3.05;;;;;;;;;;5051125;28;20500;-84
2022/04/27 11:50:00;;;;;;;3.55;2.40;;;;;;;;;;5049959;28;20111;-85
2022/04/27 11:52:27;;;;;;;4.35;2.83;;;;;;;;;;5051024;28;20087;-81
2022/04/27 11:55:00;;;;;;;4.63;2.92;;;;;;;;;;5051077;28;20053;-80
2022/04/27 11:57:26;;;;;;;3.25;2.90;;;;;;;;;;5049209;28;20053;-80
2022/04/27 11:59:57;;;;;;;3.63;3.33;;;;;;;;;;5047906;28;20049;-80
2022/04/27 12:02:32;;;;;;;3.63;2.78;;;;;;;;;;5051577;28;20052;-81
2022/04/27 12:04:59;;;;;;;4.10;3.13;;;;;;;;;;5050201;28;20044;-80
2022/04/27 12:07:26;;;;;;;4.93;3.73;;;;;;;;;;5051389;28;20451;-80
2022/04/27 12:10:00;;;;;;;8.70;4.60;;;;;;;;;;5051323;28;20190;-81
2022/04/27 12:12:27;;;;;;;4.70;4.13;;;;;;;;;;5051527;28;20088;-80
2022/04/27 12:14:54;;;;;;;5.72;4.07;;;;;;;;;;5051385;28;20083;-80
2022/04/27 12:17:39;;;;;;;4.07;3.67;;;;;;;;;;5051573;28;20053;-80
2022/04/27 12:20:06;;;;;;;4.47;3.20;;;;;;;;;;5051708;28;20077;-80
2022/04/27 12:22:33;;;;;;;4.13;2.83;;;;;;;;;;5051076;28;20049;-80
2022/04/27 12:25:00;;;;;;;4.45;2.90;;;;;;;;;;5051289;28;20469;-80
2022/04/27 12:27:26;;;;;;;5.10;3.10;;;;;;;;;;5051139;28;20045;-80
2022/04/27 12:30:03;;;;;;;4.13;3.30;;;;;;;;;;5050902;28;20072;-80
2022/04/27 12:32:33;;;;;;;4.85;3.65;;;;;;;;;;5051354;28;20476;-80
2022/04/27 12:37:50;;;;;;;4.00;2.50;;;;;;;;;;5051322;28;20433;-81
2022/04/27 12:40:17;;;;;;;3.35;2.70;;;;;;;;;;5053593;28;20080;-80
2022/04/27 12:43:02;;;;;;;5.05;2.88;;;;;;;;;;5053386;28;20040;-81
2022/04/27 12:45:29;;;;;;;3.50;3.20;;;;;;;;;;5054972;28;20162;-80
2022/04/27 12:47:55;;;;;;;6.18;3.50;;;;;;;;;;5054885;28;20382;-80
2022/04/27 12:50:22;;;;;;;4.70;3.20;;;;;;;;;;5054876;28;20118;-80
2022/04/27 12:52:49;;;;;;;5.20;3.15;;;;;;;;;;5054108;28;20076;-79
2022/04/27 12:55:16;;;;;;;2.95;2.70;;;;;;;;;;5054249;28;20080;-83
2022/04/27 12:57:48;;;;;;;3.92;2.80;;;;;;;;;;5054110;28;20488;-80
2022/04/27 13:00:15;;;;;;;3.65;2.70;;;;;;;;;;5051744;28;20126;-80
2022/04/27 13:02:42;;;;;;;2.78;2.55;;;;;;;;;;5054177;28;20081;-81
2022/04/27 13:05:09;;;;;;;2.95;2.72;;;;;;;;;;5054510;28;20048;-77
2022/04/27 13:07:36;;;;;;;3.25;2.50;;;;;;;;;;5054312;28;20087;-77
2022/04/27 13:12:49;;;;;;;2.70;2.50;;;;;;;;;;5054221;28;20076;-84
2022/04/27 13:15:16;;;;;;;4.18;2.42;;;;;;;;;;5052995;28;20650;-79
2022/04/27 13:17:42;;;;;;;4.97;3.03;;;;;;;;;;5052936;28;20128;-81
2022/04/27 13:20:09;;;;;;;5.97;3.28;;;;;;;;;;5054195;28;20493;-79
2022/04/27 13:22:36;;;;;;;5.68;4.10;;;;;;;;;;5054310;28;20139;-80
2022/04/27 13:25:04;;;;;;;4.05;3.75;;;;;;;;;;5053999;28;20072;-80
2022/04/27 13:27:31;;;;;;;4.88;4.38;;;;;;;;;;5053577;28;20460;-80
2022/04/27 13:30:03;;;;;;;6.53;4.47;;;;;;;;;;5053678;28;20045;-80
2022/04/27 13:32:29;;;;;;;6.35;4.80;;;;;;;;;;5053834;28;20579;-80
2022/04/27 13:34:56;;;;;;;5.85;4.25;;;;;;;;;;5053805;28;20136;-80
2022/04/27 13:37:23;;;;;;;5.68;3.38;;;;;;;;;;5054430;28;20110;-80
2022/04/27 13:39:50;;;;;;;4.70;2.90;;;;;;;;;;5052779;28;20048;-80
2022/04/27 13:42:16;;;;;;;3.67;2.85;;;;;;;;;;5053636;28;20094;-80
2022/04/27 13:44:43;;;;;;;3.70;3.38;;;;;;;;;;5052366;28;20071;-80
2022/04/27 13:47:09;;;;;;;4.22;3.20;;;;;;;;;;5053817;28;20041;-79
2022/04/27 13:49:36;;;;;;;4.73;3.00;;;;;;;;;;5053454;28;20041;-80
2022/04/27 13:52:04;;;;;;;4.13;3.28;;;;;;;;;;5052889;28;20064;-79
2022/04/27 13:54:36;;;;;;;3.90;3.00;;;;;;;;;;5053670;28;20083;-79
2022/04/27 13:57:03;;;;;;;6.43;4.00;;;;;;;;;;5053641;28;20053;-80
2022/04/27 13:59:30;;;;;;;3.90;3.60;;;;;;;;;;5053482;28;20049;-80
2022/04/27 14:01:58;;;;;;;4.78;4.20;;;;;;;;;;5052951;28;20091;-80
2022/04/27 14:04:25;;;;;;;6.20;4.53;;;;;;;;;;5052284;28;20048;-80
2022/04/27 14:06:52;;;;;;;4.65;3.35;;;;;;;;;;5052285;28;20685;-80
2022/04/27 14:09:18;;;;;;;4.72;3.20;;;;;;;;;;5053510;28;20068;-80
2022/04/27 14:14:29;;;;;;;4.00;3.60;;;;;;;;;;5053054;28;20052;-80
2022/04/27 14:19:41;;;;;;;4.45;3.20;;;;;;;;;;5048355;28;20075;-80
2022/04/27 14:22:07;;;;;;;4.97;3.78;;;;;;;;;;5052958;28;20080;-84
2022/04/27 14:24:34;;;;;;;5.13;3.88;;;;;;;;;;5051098;28;20049;-82
2022/04/27 14:27:00;;;;;;;6.55;4.50;;;;;;;;;;5052691;28;20065;-81
2022/04/27 14:29:26;;;;;;;6.35;4.68;;;;;;;;;;5051036;28;20562;-78
2022/04/27 14:31:55;;;;;;;5.38;4.10;;;;;;;;;;5052609;28;20135;-80
2022/04/27 14:34:22;;;;;;;4.63;3.97;;;;;;;;;;5052824;28;20152;-79
2022/04/27 14:36:49;;;;;;;4.80;3.70;;;;;;;;;;5052968;28;20076;-79
2022/04/27 14:39:15;;;;;;;6.05;3.92;;;;;;;;;;5051295;28;20566;-79
2022/04/27 14:41:42;;;;;;;4.35;3.33;;;;;;;;;;5052577;28;20087;-79
2022/04/27 14:44:11;;;;;;;11.13;3.50;;;;;;;;;;5052978;28;20048;-79
2022/04/27 14:46:38;;;;;;;3.83;3.00;;;;;;;;;;5052580;28;20077;-79
2022/04/27 14:49:05;;;;;;;;;;;;;;;;;;5053169;28;20045;-78
2022/04/27 14:51:31;;;;;;;5.45;3.72;;;;;;;;;;5052501;28;19968;-79
2022/04/27 14:53:58;;;;;;;5.20;3.47;;;;;;;;;;5052527;28;20509;-79
2022/04/27 14:56:24;;;;;;;5.70;3.42;;;;;;;;;;5053033;28;20520;-79
2022/04/27 14:58:51;;;;;;;4.38;3.90;;;;;;;;;;5053324;28;20075;-79
2022/04/27 15:01:17;;;;;;;5.45;3.65;;;;;;;;;;5052638;28;20056;-79
2022/04/27 15:03:44;;;;;;;5.40;3.78;;;;;;;;;;5051672;28;20041;-79
2022/04/27 15:06:10;;;;;;;4.88;3.60;;;;;;;;;;5052782;28;20053;-79
2022/04/27 15:08:37;;;;;;;4.25;3.85;;;;;;;;;;5052351;28;20079;-79
2022/04/27 15:11:03;;;;;;;4.85;3.72;;;;;;;;;;5052338;28;20479;-79